Aérodrome :
LOGIN :

S'inscrire | Disclaimer

   EN    FR    IT 

 










Légende :    VFR   VFR Marginal   IFR   IFR Intensif   IFR Très Intensif
Visi : 
Plafond : 
>= 8 km
>= 3000ft
5 à 8 km
1000 à 3000 ft
1500m à 5 km
500 à 1000 ft
800 à 1500m
200 à 500 ft
< 800m
< 200 ft
Symboles :   Orages  Brouillard  Fortes neiges  Fortes précipitations  Vent > 20 kt
SIGMETs :   Divers  Orages  Givrage  Turbulence  Onde Orograph.  Cendres Volcan.







- Altitude de l'aérodrome : 17 ft
- Code IATA : GRQ


EHGG - Groningen Eelde

DERNIER METAR :
  • 170855Z AUTO 28010KT 250V320 9999 SCT038 OVC043 14/11 Q1018 REDZ TEMPO 7000 -SHRA FEW035TCU

METARs EXPIRÉS :
  • 170825Z AUTO 31014G24KT 260V350 5000 DZ FEW019 BKN025 OVC030 13/10 Q1018 TEMPO 7000 -SHRA FEW035TCU
  • 170755Z AUTO 27009KT 230V310 9999 SCT020 BKN029 BKN032 15/10 Q1018 TEMPO 7000 -SHRA FEW035TCU
  • 170725Z AUTO 25009KT 220V280 9999 NSC 13/10 Q1018 TEMPO 7000 -SHRA FEW035TCU
  • 170655Z AUTO 24009KT 9999 FEW028 BKN033 BKN037 12/09 Q1018 RERA REDZ TEMPO 7000 -SHRA FEW035TCU
  • 170625Z AUTO 25009KT 220V300 9999 -RA OVC041 12/08 Q1018 TEMPO 7000 -SHRA FEW035TCU

TAF TAF EHGG
Valide du 17 à 06h jusqu'au 18 à 12h UTC


170516Z 1706/1812 25008KT 9999 BKN030
PROB40
TEMPO 1706/1717 6000 SHRA SCT035TCU
BECMG 1708/1710 30017KT
BECMG 1717/1719 28006KT
BECMG 1807/1809 31011KT
Pas de NOTAMs connus pour ce terrain.



MET'MAP, la Météo Aéronautique d'un coup d'oeil ! - Copyright ORBIFLY Décembre 2007 - Disclaimer

ORBIFLY MET'MAP TEAM :

Programmation & Développement : Alexandra Zaïnal
Conception & Développement : Baudouin d'Aumeries
Co-Programmation & Développement : Marc-Olivier Méhu
Soutien technique & logistique : Manuel Goepfert

Contact : metmap@orbifly.com




SOURCES & CREDITS :

   NOAA